Castle Dale, Utah
Current Conditions -  °F | °C
As of 4:53 PM on Wednesday 28 Jan 2015 (Local Time) from KPUC Reporting Station
Overcast Overcast  
Wind Chill: 44°   Ceiling: 6000
Heat Index: 47°   Visibility: 10mi
Dew Point: 27°   Wind: 6mph
Humidity: 46%   Direction: 310°NW
Pressure: 30.24"   Gusts: NA
Location:  39.21°N, 111.02°W
Report Text: KPUC 282353Z AUTO 31005KT 10SM OVC060 08/M03 A3024 RMK AO2 SLP257 T00831028 10100 20067 55000
Loading
Personal Weather Stations






























Interactive Weather Map New forecast layout! Learn more

10-Day Weather Forecast

Advertisements
Track Severe Weather on mobile